createdAt,value
2023-05-01T00:00:18.273Z,37.60
2023-05-01T00:02:55.874Z,37.70
2023-05-01T00:05:29.105Z,37.50
2023-05-01T00:08:03.749Z,37.60
2023-05-01T00:10:37.410Z,37.70
2023-05-01T00:13:10.840Z,37.50
2023-05-01T00:15:44.140Z,37.30
2023-05-01T00:18:17.483Z,37.30
2023-05-01T00:20:51.073Z,37.40
2023-05-01T00:23:25.714Z,37.50
2023-05-01T00:25:58.862Z,37.40
2023-05-01T00:28:32.718Z,37.30
2023-05-01T00:31:06.098Z,37.40
2023-05-01T00:33:39.435Z,37.50
2023-05-01T00:36:12.663Z,37.40
2023-05-01T00:38:47.403Z,37.90
2023-05-01T00:41:21.189Z,37.40
2023-05-01T00:43:54.266Z,37.30
2023-05-01T00:46:27.708Z,38.20
2023-05-01T00:49:01.478Z,37.50
2023-05-01T00:51:34.731Z,37.40
2023-05-01T00:54:09.614Z,38.20
2023-05-01T00:56:43.280Z,37.50
2023-05-01T00:59:16.539Z,37.40
2023-05-01T01:01:49.708Z,37.20
2023-05-01T01:04:23.044Z,37.30
2023-05-01T01:07:09.212Z,37.20
2023-05-01T01:09:56.947Z,37.30
2023-05-01T01:12:35.832Z,37.70
2023-05-01T01:15:16.098Z,37.50
2023-05-01T01:17:54.288Z,37.30
2023-05-01T01:20:38.129Z,37.50
2023-05-01T01:23:53.473Z,37.80
2023-05-01T01:26:48.711Z,38.10
2023-05-01T01:29:49.713Z,37.60
2023-05-01T01:32:40.490Z,37.90
2023-05-01T01:35:20.909Z,37.60
2023-05-01T01:38:02.207Z,37.50
2023-05-01T01:40:40.744Z,37.50
2023-05-01T01:43:18.229Z,37.20
2023-05-01T01:45:57.463Z,37.10
2023-05-01T01:48:35.068Z,37.20
2023-05-01T01:51:13.830Z,37.20
2023-05-01T01:53:50.988Z,37.20
2023-05-01T01:56:27.882Z,37.10
2023-05-01T01:59:03.129Z,37.20
2023-05-01T02:01:38.451Z,37.20
2023-05-01T02:04:13.245Z,37.10
2023-05-01T02:06:49.608Z,37.20
2023-05-01T02:09:24.651Z,37.20
2023-05-01T02:11:58.459Z,37.20
2023-05-01T02:14:32.615Z,37.10
2023-05-01T02:17:06.827Z,38.00
2023-05-01T02:19:41.987Z,37.30
2023-05-01T02:22:18.358Z,37.10
2023-05-01T02:24:52.573Z,37.00
2023-05-01T02:27:31.832Z,37.20
2023-05-01T02:30:06.962Z,37.00
2023-05-01T02:32:40.714Z,37.00
2023-05-01T02:35:13.944Z,36.90
2023-05-01T02:37:48.635Z,36.90
2023-05-01T02:40:22.028Z,37.00
2023-05-01T02:42:55.532Z,37.10
2023-05-01T02:45:30.540Z,37.10
2023-05-01T02:48:06.330Z,37.00
2023-05-01T02:50:42.119Z,37.00
2023-05-01T02:53:17.936Z,37.00
2023-05-01T02:55:55.678Z,37.00
2023-05-01T02:58:33.317Z,36.80
2023-05-01T03:01:07.075Z,36.90
2023-05-01T03:03:40.173Z,36.90
2023-05-01T03:06:14.263Z,37.90
2023-05-01T03:08:48.892Z,37.10
2023-05-01T03:11:22.398Z,36.90
2023-05-01T03:13:55.557Z,36.90
2023-05-01T03:16:28.719Z,36.90
2023-05-01T03:19:01.955Z,36.80
2023-05-01T03:21:35.140Z,36.80
2023-05-01T03:24:10.194Z,37.00
2023-05-01T03:26:43.483Z,37.10
2023-05-01T03:29:16.699Z,37.00
2023-05-01T03:31:50.339Z,37.00
2023-05-01T03:34:23.706Z,36.80
2023-05-01T03:36:57.269Z,36.80
2023-05-01T03:39:34.102Z,37.10
2023-05-01T03:42:26.059Z,37.00
2023-05-01T03:45:05.629Z,37.10
2023-05-01T03:47:39.465Z,36.90
2023-05-01T03:50:14.479Z,37.00
2023-05-01T03:52:49.517Z,36.90
2023-05-01T03:55:24.065Z,36.80
2023-05-01T03:57:58.867Z,36.70
2023-05-01T04:00:33.614Z,36.60
2023-05-01T04:03:07.183Z,36.50
2023-05-01T04:05:42.505Z,36.50
2023-05-01T04:08:16.005Z,37.30
2023-05-01T04:10:50.502Z,36.80
2023-05-01T04:13:23.830Z,36.80
2023-05-01T04:15:59.322Z,36.90
2023-05-01T04:18:33.958Z,36.80
2023-05-01T04:21:07.557Z,36.80
2023-05-01T04:23:41.444Z,36.70
2023-05-01T04:26:16.357Z,36.70
2023-05-01T04:28:50.838Z,36.60
2023-05-01T04:31:28.114Z,36.70
2023-05-01T04:34:01.400Z,36.60
2023-05-01T04:36:34.556Z,36.80
2023-05-01T04:39:07.824Z,36.80
2023-05-01T04:41:42.476Z,36.60
2023-05-01T04:44:15.692Z,36.40
2023-05-01T04:46:48.995Z,36.40
2023-05-01T04:49:23.105Z,36.40
2023-05-01T04:51:56.523Z,36.50
2023-05-01T04:54:32.853Z,37.30
2023-05-01T04:57:07.413Z,36.50
2023-05-01T04:59:40.677Z,36.60
2023-05-01T05:02:14.357Z,36.50
2023-05-01T05:04:47.712Z,37.50
2023-05-01T05:07:21.548Z,36.50
2023-05-01T05:10:13.966Z,36.40
2023-05-01T05:12:53.315Z,36.40
2023-05-01T05:15:26.749Z,36.50
2023-05-01T05:18:00.061Z,36.40
2023-05-01T05:20:33.859Z,36.30
2023-05-01T05:23:08.385Z,36.40
2023-05-01T05:25:42.124Z,36.50
2023-05-01T05:28:17.226Z,36.40
2023-05-01T05:30:51.166Z,36.50
2023-05-01T05:33:26.086Z,36.60
2023-05-01T05:36:00.429Z,36.60
2023-05-01T05:38:40.521Z,36.70
2023-05-01T05:41:16.066Z,36.50
2023-05-01T05:43:51.008Z,36.70
2023-05-01T05:46:24.354Z,36.50
2023-05-01T05:48:57.674Z,36.50
2023-05-01T05:51:32.137Z,36.60
2023-05-01T05:54:06.156Z,36.40
2023-05-01T05:56:41.626Z,36.30
2023-05-01T05:59:17.630Z,36.30
2023-05-01T06:01:51.569Z,36.20
2023-05-01T06:04:25.521Z,36.40
2023-05-01T06:06:58.829Z,36.40
2023-05-01T06:09:32.102Z,36.30
2023-05-01T06:12:05.926Z,36.30
2023-05-01T06:14:41.119Z,36.40
2023-05-01T06:17:15.211Z,36.30
2023-05-01T06:19:48.420Z,36.30
2023-05-01T06:22:21.943Z,36.10
2023-05-01T06:25:08.055Z,36.00
2023-05-01T06:27:42.096Z,36.00
2023-05-01T06:30:16.765Z,36.00
2023-05-01T06:32:50.274Z,36.10
2023-05-01T06:35:23.685Z,36.10
2023-05-01T06:37:56.978Z,36.50
2023-05-01T06:40:31.645Z,36.40
2023-05-01T06:43:05.554Z,36.20
2023-05-01T06:45:42.146Z,36.20
2023-05-01T06:48:15.441Z,36.10
2023-05-01T06:50:48.698Z,36.20
2023-05-01T06:53:21.976Z,36.20
2023-05-01T06:55:55.457Z,36.00
2023-05-01T06:58:28.866Z,36.00
2023-05-01T07:01:03.897Z,36.80
2023-05-01T07:03:37.212Z,36.00
2023-05-01T07:06:10.517Z,36.20
2023-05-01T07:08:43.780Z,36.00
2023-05-01T07:11:16.985Z,35.90
2023-05-01T07:13:50.177Z,36.00
2023-05-01T07:16:24.815Z,36.00
2023-05-01T07:18:58.021Z,36.60
2023-05-01T07:21:32.232Z,35.90
2023-05-01T07:24:06.135Z,36.00
2023-05-01T07:26:39.535Z,35.90
2023-05-01T07:29:13.373Z,36.00
2023-05-01T07:31:48.206Z,35.90
2023-05-01T07:34:21.429Z,36.50
2023-05-01T07:36:54.936Z,36.00
2023-05-01T07:39:28.335Z,36.00
2023-05-01T07:42:01.616Z,35.90
2023-05-01T07:44:34.967Z,36.00
2023-05-01T07:47:09.568Z,36.00
2023-05-01T07:49:42.810Z,35.90
2023-05-01T07:52:16.513Z,36.00
2023-05-01T07:54:50.564Z,35.90
2023-05-01T07:57:25.141Z,36.80
2023-05-01T07:59:58.828Z,36.10
2023-05-01T08:02:33.356Z,36.00
2023-05-01T08:05:06.873Z,36.60
2023-05-01T08:07:40.087Z,36.80
2023-05-01T08:10:13.275Z,36.30
2023-05-01T08:12:46.535Z,36.10
2023-05-01T08:15:21.013Z,36.10
2023-05-01T08:17:55.636Z,36.00
2023-05-01T08:20:28.972Z,36.00
2023-05-01T08:23:02.224Z,36.00
2023-05-01T08:25:35.683Z,35.90
2023-05-01T08:28:09.165Z,36.00
2023-05-01T08:30:42.552Z,35.90
2023-05-01T08:33:17.280Z,35.90
2023-05-01T08:35:51.309Z,36.00
2023-05-01T08:38:24.541Z,36.00
2023-05-01T08:40:59.787Z,35.90
2023-05-01T08:43:33.553Z,36.00
2023-05-01T08:46:08.932Z,35.90
2023-05-01T08:48:45.707Z,36.30
2023-05-01T08:51:23.025Z,36.00
2023-05-01T08:53:59.229Z,36.00
2023-05-01T08:56:33.544Z,36.00
2023-05-01T08:59:10.688Z,36.00
2023-05-01T09:01:45.433Z,35.90
2023-05-01T09:04:20.426Z,35.90
2023-05-01T09:06:56.592Z,35.90
2023-05-01T09:09:30.200Z,35.90
2023-05-01T09:12:13.846Z,35.90
2023-05-01T09:14:47.239Z,36.00
2023-05-01T09:17:21.676Z,35.90
2023-05-01T09:19:56.557Z,36.00
2023-05-01T09:22:32.294Z,36.00
2023-05-01T09:25:06.515Z,36.00
2023-05-01T09:27:39.839Z,35.90
2023-05-01T09:30:42.897Z,35.90
2023-05-01T09:33:17.267Z,35.90
2023-05-01T09:35:54.177Z,35.90
2023-05-01T09:38:29.104Z,36.00
2023-05-01T09:41:06.179Z,36.00
2023-05-01T09:43:39.892Z,36.00
2023-05-01T09:46:13.334Z,36.00
2023-05-01T09:48:57.421Z,36.00
2023-05-01T09:51:33.111Z,36.20
2023-05-01T09:54:06.755Z,36.40
2023-05-01T09:56:48.838Z,36.00
2023-05-01T09:59:22.737Z,36.10
2023-05-01T10:01:57.214Z,36.00
2023-05-01T10:04:33.809Z,36.00
2023-05-01T10:07:15.117Z,36.00
2023-05-01T10:09:48.265Z,36.20
2023-05-01T10:12:25.687Z,36.00
2023-05-01T10:15:01.771Z,36.00
2023-05-01T10:17:40.440Z,36.00
2023-05-01T10:20:14.970Z,36.00
2023-05-01T10:22:50.025Z,36.00
2023-05-01T10:25:26.305Z,36.00
2023-05-01T10:28:00.416Z,36.10
2023-05-01T10:30:33.787Z,36.10
2023-05-01T10:33:07.110Z,36.10
2023-05-01T10:35:43.771Z,36.10
2023-05-01T10:38:26.807Z,36.00
2023-05-01T10:40:59.995Z,36.10
2023-05-01T10:43:33.889Z,36.00
2023-05-01T10:46:27.286Z,36.00
2023-05-01T10:49:00.604Z,36.20
2023-05-01T10:51:33.864Z,36.10
2023-05-01T10:54:27.721Z,36.00
2023-05-01T10:57:03.103Z,36.00
2023-05-01T11:00:10.330Z,36.20
2023-05-01T11:02:43.638Z,36.30
2023-05-01T11:05:23.673Z,36.10
2023-05-01T11:08:30.208Z,36.10
2023-05-01T11:11:40.755Z,36.60
2023-05-01T11:14:15.745Z,36.40
2023-05-01T11:16:49.479Z,36.30
2023-05-01T11:19:50.422Z,36.20
2023-05-01T11:22:23.712Z,36.70
2023-05-01T11:24:57.325Z,36.30
2023-05-01T11:27:30.562Z,36.20
2023-05-01T11:30:05.837Z,36.60
2023-05-01T11:32:39.119Z,36.30
2023-05-01T11:35:18.141Z,36.30
2023-05-01T11:37:52.183Z,36.40
2023-05-01T11:40:27.412Z,36.30
2023-05-01T11:43:05.036Z,36.30
2023-05-01T11:45:39.674Z,36.20
2023-05-01T11:48:16.981Z,36.20
2023-05-01T11:50:50.639Z,36.30
2023-05-01T11:53:24.234Z,36.30
2023-05-01T11:55:59.359Z,36.30
2023-05-01T11:58:34.675Z,36.20
2023-05-01T12:01:09.326Z,36.30
2023-05-01T12:03:43.505Z,36.20
2023-05-01T12:06:16.992Z,36.20
2023-05-01T12:08:53.173Z,36.20
2023-05-01T12:11:27.021Z,36.20
2023-05-01T12:14:00.208Z,36.20
2023-05-01T12:16:35.502Z,36.60
2023-05-01T12:19:09.208Z,36.80
2023-05-01T12:21:42.618Z,36.20
2023-05-01T12:24:19.131Z,36.20
2023-05-01T12:27:01.456Z,36.20
2023-05-01T12:29:41.366Z,36.40
2023-05-01T12:32:16.968Z,36.40
2023-05-01T12:34:50.413Z,36.20
2023-05-01T12:37:23.634Z,36.20
2023-05-01T12:39:56.849Z,36.20
2023-05-01T12:42:30.073Z,36.20
2023-05-01T12:45:03.920Z,36.20
2023-05-01T12:47:39.563Z,36.20
2023-05-01T12:50:12.821Z,36.30
2023-05-01T12:52:46.018Z,36.10
2023-05-01T12:55:19.244Z,36.70
2023-05-01T12:57:53.769Z,36.20
2023-05-01T13:00:27.006Z,36.20
2023-05-01T13:03:06.015Z,36.20
2023-05-01T13:05:51.563Z,36.30
2023-05-01T13:08:29.676Z,36.50
2023-05-01T13:11:12.917Z,36.20
2023-05-01T13:13:47.066Z,36.10
2023-05-01T13:16:20.931Z,36.40
2023-05-01T13:18:55.527Z,36.20
2023-05-01T13:21:28.917Z,36.10
2023-05-01T13:24:03.046Z,36.10
2023-05-01T13:26:37.305Z,36.30
2023-05-01T13:29:16.098Z,36.20
2023-05-01T13:31:49.254Z,36.20
2023-05-01T13:34:28.786Z,36.20
2023-05-01T13:37:03.364Z,36.20
2023-05-01T13:39:36.596Z,36.20
2023-05-01T13:42:10.025Z,36.20
2023-05-01T13:44:45.520Z,36.20
2023-05-01T13:47:19.495Z,36.20
2023-05-01T13:49:54.089Z,36.20
2023-05-01T13:52:27.981Z,36.30
2023-05-01T13:55:02.196Z,36.80
2023-05-01T13:57:37.821Z,36.20
2023-05-01T14:00:17.604Z,36.30
2023-05-01T14:02:53.062Z,36.30
2023-05-01T14:05:29.180Z,36.40
2023-05-01T14:08:02.519Z,36.40
2023-05-01T14:10:35.787Z,36.40
2023-05-01T14:13:09.919Z,36.40
2023-05-01T14:15:43.925Z,36.40
2023-05-01T14:18:18.092Z,36.40
2023-05-01T14:20:52.715Z,36.40
2023-05-01T14:23:25.922Z,36.50
2023-05-01T14:25:59.134Z,36.40
2023-05-01T14:28:32.956Z,36.40
2023-05-01T14:31:06.520Z,36.50
2023-05-01T14:33:43.470Z,36.50
2023-05-01T14:36:19.942Z,36.50
2023-05-01T14:38:53.313Z,36.50
2023-05-01T14:41:26.988Z,36.60
2023-05-01T14:44:00.629Z,36.50
2023-05-01T14:46:36.257Z,36.90
2023-05-01T14:49:09.486Z,36.60
2023-05-01T14:51:44.073Z,36.70
2023-05-01T14:54:17.644Z,36.60
2023-05-01T14:56:50.850Z,36.60
2023-05-01T14:59:24.618Z,36.60
2023-05-01T15:01:57.822Z,36.80
2023-05-01T15:04:31.612Z,36.90
2023-05-01T15:07:06.219Z,36.80
2023-05-01T15:09:42.212Z,37.20
2023-05-01T15:12:15.515Z,37.00
2023-05-01T15:14:48.730Z,36.80
2023-05-01T15:17:22.022Z,36.80
2023-05-01T15:19:55.276Z,36.80
2023-05-01T15:22:29.893Z,36.80
2023-05-01T15:25:03.082Z,37.40
2023-05-01T15:27:36.336Z,37.40
2023-05-01T15:30:10.387Z,36.80
2023-05-01T15:32:43.940Z,36.80
2023-05-01T15:35:17.372Z,36.80
2023-05-01T15:37:52.962Z,37.30
2023-05-01T15:40:26.248Z,36.80
2023-05-01T15:42:59.423Z,36.90
2023-05-01T15:45:32.864Z,36.80
2023-05-01T15:48:06.704Z,36.80
2023-05-01T15:50:40.882Z,36.90
2023-05-01T15:53:17.272Z,36.80
2023-05-01T15:55:51.440Z,36.80
2023-05-01T15:58:25.238Z,36.90
2023-05-01T16:00:58.278Z,36.90
2023-05-01T16:03:32.036Z,37.30
2023-05-01T16:06:05.300Z,37.00
2023-05-01T16:08:40.261Z,37.40
2023-05-01T16:11:13.516Z,36.90
2023-05-01T16:13:47.703Z,36.90
2023-05-01T16:16:23.978Z,37.00
2023-05-01T16:18:59.498Z,37.00
2023-05-01T16:21:32.969Z,37.00
2023-05-01T16:24:07.805Z,36.90
2023-05-01T16:26:41.940Z,36.90
2023-05-01T16:29:15.166Z,37.00
2023-05-01T16:31:48.420Z,36.90
2023-05-01T16:34:26.436Z,37.00
2023-05-01T16:36:59.618Z,36.90
2023-05-01T16:39:38.476Z,36.90
2023-05-01T16:42:14.154Z,37.10
2023-05-01T16:44:47.643Z,37.10
2023-05-01T16:47:21.184Z,37.00
2023-05-01T16:50:00.588Z,37.00
2023-05-01T16:52:34.108Z,37.00
2023-05-01T16:55:10.081Z,37.10
2023-05-01T16:57:44.393Z,37.00
2023-05-01T17:00:18.427Z,37.50
2023-05-01T17:02:53.520Z,36.90
2023-05-01T17:05:27.290Z,37.40
2023-05-01T17:08:00.613Z,37.00
2023-05-01T17:10:35.192Z,36.90
2023-05-01T17:13:08.651Z,37.00
2023-05-01T17:15:42.303Z,37.10
2023-05-01T17:18:16.036Z,37.10
2023-05-01T17:20:49.267Z,37.10
2023-05-01T17:23:23.434Z,37.20
2023-05-01T17:25:58.010Z,37.10
2023-05-01T17:28:31.231Z,37.20
2023-05-01T17:31:04.632Z,37.20
2023-05-01T17:33:37.919Z,37.10
2023-05-01T17:36:11.178Z,37.20
2023-05-01T17:38:44.368Z,37.30
2023-05-01T17:41:18.936Z,37.30
2023-05-01T17:43:52.131Z,37.20
2023-05-01T17:46:25.922Z,37.10
2023-05-01T17:48:59.383Z,37.20
2023-05-01T17:51:32.967Z,37.10
2023-05-01T17:54:06.561Z,37.20
2023-05-01T17:56:41.548Z,37.20
2023-05-01T17:59:14.742Z,37.20
2023-05-01T18:01:48.308Z,37.20
2023-05-01T18:04:21.640Z,37.20
2023-05-01T18:06:56.247Z,37.10
2023-05-01T18:09:29.675Z,37.10
2023-05-01T18:12:04.364Z,37.10
2023-05-01T18:14:37.972Z,37.20
2023-05-01T18:17:11.240Z,37.10
2023-05-01T18:19:44.600Z,37.20
2023-05-01T18:22:18.276Z,37.20
2023-05-01T18:24:51.549Z,37.30
2023-05-01T18:27:26.143Z,37.30
2023-05-01T18:29:59.629Z,37.40
2023-05-01T18:32:47.018Z,37.30
2023-05-01T18:35:21.810Z,37.30
2023-05-01T18:37:55.004Z,37.40
2023-05-01T18:40:28.252Z,37.50
2023-05-01T18:43:02.859Z,37.40
2023-05-01T18:45:36.075Z,37.30
2023-05-01T18:48:09.334Z,37.30
2023-05-01T18:50:42.912Z,37.40
2023-05-01T18:53:16.146Z,37.40
2023-05-01T18:55:49.318Z,37.30
2023-05-01T18:58:23.917Z,37.30
2023-05-01T19:00:57.136Z,37.30
2023-05-01T19:03:30.308Z,37.20
2023-05-01T19:06:03.503Z,37.30
2023-05-01T19:08:36.698Z,37.30
2023-05-01T19:11:09.856Z,37.30
2023-05-01T19:13:44.388Z,37.20
2023-05-01T19:16:17.691Z,37.10
2023-05-01T19:18:51.048Z,37.20
2023-05-01T19:21:24.939Z,37.10
2023-05-01T19:23:58.206Z,37.20
2023-05-01T19:26:31.416Z,38.10
2023-05-01T19:29:06.124Z,37.20
2023-05-01T19:31:39.367Z,37.20
2023-05-01T19:34:12.602Z,37.20
2023-05-01T19:36:45.947Z,37.20
2023-05-01T19:39:19.187Z,37.20
2023-05-01T19:41:53.983Z,37.10
2023-05-01T19:44:28.535Z,37.20
2023-05-01T19:47:01.970Z,37.10
2023-05-01T19:49:35.583Z,37.20
2023-05-01T19:52:10.227Z,37.20
2023-05-01T19:54:44.764Z,37.00
2023-05-01T19:57:17.980Z,37.00
2023-05-01T19:59:55.018Z,37.20
2023-05-01T20:02:28.534Z,36.90
2023-05-01T20:05:01.804Z,37.10
2023-05-01T20:07:35.296Z,37.00
2023-05-01T20:10:09.706Z,37.10
2023-05-01T20:12:43.331Z,37.10
2023-05-01T20:15:19.009Z,37.00
2023-05-01T20:17:52.288Z,37.00
2023-05-01T20:20:25.496Z,37.00
2023-05-01T20:23:11.127Z,37.10
2023-05-01T20:25:46.433Z,37.40
2023-05-01T20:28:20.750Z,36.90
2023-05-01T20:30:55.552Z,36.80
2023-05-01T20:33:28.794Z,36.70
2023-05-01T20:36:02.019Z,36.80
2023-05-01T20:38:41.969Z,36.70
2023-05-01T20:41:15.235Z,37.00
2023-05-01T20:43:48.423Z,36.80
2023-05-01T20:46:23.244Z,36.90
2023-05-01T20:48:56.510Z,36.90
2023-05-01T20:51:32.058Z,36.90
2023-05-01T20:54:06.089Z,36.80
2023-05-01T20:56:39.535Z,36.80
2023-05-01T20:59:13.634Z,37.00
2023-05-01T21:01:49.551Z,37.00
2023-05-01T21:04:23.012Z,36.90
2023-05-01T21:06:58.211Z,37.00
2023-05-01T21:09:31.484Z,36.90
2023-05-01T21:12:06.505Z,37.00
2023-05-01T21:14:40.646Z,37.00
2023-05-01T21:17:19.135Z,37.00
2023-05-01T21:19:52.440Z,37.00
2023-05-01T21:22:25.928Z,36.80
2023-05-01T21:25:00.841Z,36.90
2023-05-01T21:27:34.116Z,36.80
2023-05-01T21:30:08.706Z,36.80
2023-05-01T21:32:43.363Z,36.80
2023-05-01T21:35:18.592Z,36.70
2023-05-01T21:37:53.272Z,36.70
2023-05-01T21:40:27.439Z,36.70
2023-05-01T21:43:01.630Z,36.90
2023-05-01T21:45:40.149Z,36.70
2023-05-01T21:48:17.085Z,36.70
2023-05-01T21:50:51.302Z,36.70
2023-05-01T21:53:28.949Z,36.70
2023-05-01T21:56:02.180Z,36.60
2023-05-01T21:58:35.767Z,36.70
2023-05-01T22:01:09.547Z,36.70
2023-05-01T22:03:44.620Z,36.70
2023-05-01T22:06:17.967Z,36.60
2023-05-01T22:08:51.728Z,36.70
2023-05-01T22:11:26.271Z,36.60
2023-05-01T22:14:01.858Z,37.60
2023-05-01T22:16:35.068Z,36.80
2023-05-01T22:19:09.700Z,36.70
2023-05-01T22:21:42.890Z,36.90
2023-05-01T22:24:16.484Z,36.90
2023-05-01T22:26:50.244Z,36.80
2023-05-01T22:29:23.258Z,36.90
2023-05-01T22:31:56.966Z,37.70
2023-05-01T22:34:31.439Z,36.70
2023-05-01T22:37:04.612Z,37.10
2023-05-01T22:39:37.875Z,37.60
2023-05-01T22:42:11.124Z,36.90
2023-05-01T22:44:44.401Z,36.80
2023-05-01T22:47:17.806Z,36.80
2023-05-01T22:49:52.355Z,36.60
2023-05-01T22:52:25.700Z,36.60
2023-05-01T22:54:58.886Z,36.70
2023-05-01T22:57:32.020Z,36.70
2023-05-01T23:00:06.162Z,36.60
2023-05-01T23:02:39.498Z,36.60
2023-05-01T23:05:14.064Z,36.60
2023-05-01T23:07:47.225Z,36.90
2023-05-01T23:10:22.142Z,36.80
2023-05-01T23:12:55.553Z,36.70
2023-05-01T23:15:28.698Z,36.60
2023-05-01T23:18:02.036Z,36.60
2023-05-01T23:20:39.971Z,36.50
2023-05-01T23:23:15.633Z,36.60
2023-05-01T23:25:50.556Z,36.60
2023-05-01T23:28:25.112Z,36.70
2023-05-01T23:30:59.887Z,36.60
2023-05-01T23:33:37.820Z,36.50
2023-05-01T23:36:12.932Z,36.50
2023-05-01T23:38:47.007Z,36.40
2023-05-01T23:41:20.390Z,36.40
2023-05-01T23:43:53.655Z,36.50
2023-05-01T23:46:27.770Z,36.60
2023-05-01T23:49:01.136Z,36.50
2023-05-01T23:51:35.889Z,36.50
2023-05-01T23:54:09.053Z,36.50
2023-05-01T23:56:42.263Z,36.40
2023-05-01T23:59:15.724Z,36.20
